createdAt,value
2023-05-24T00:00:35.487Z,9.60
2023-05-24T00:03:05.498Z,9.60
2023-05-24T00:05:33.479Z,9.50
2023-05-24T00:08:01.427Z,9.50
2023-05-24T00:10:29.372Z,9.50
2023-05-24T00:12:57.471Z,9.40
2023-05-24T00:15:25.541Z,9.40
2023-05-24T00:17:54.899Z,9.40
2023-05-24T00:20:22.945Z,9.30
2023-05-24T00:22:51.679Z,9.30
2023-05-24T00:25:19.607Z,9.20
2023-05-24T00:27:48.165Z,9.20
2023-05-24T00:30:16.243Z,9.20
2023-05-24T00:32:44.192Z,9.20
2023-05-24T00:35:13.521Z,9.10
2023-05-24T00:37:45.089Z,9.10
2023-05-24T00:40:13.613Z,9.00
2023-05-24T00:42:41.597Z,9.00
2023-05-24T00:45:10.531Z,9.00
2023-05-24T00:47:38.562Z,9.00
2023-05-24T00:50:09.302Z,8.90
2023-05-24T00:52:38.889Z,8.90
2023-05-24T00:55:08.300Z,8.90
2023-05-24T00:57:37.707Z,8.80
2023-05-24T01:00:08.051Z,8.80
2023-05-24T01:02:36.340Z,8.80
2023-05-24T01:05:04.562Z,8.80
2023-05-24T01:07:39.019Z,8.80
2023-05-24T01:10:15.687Z,8.70
2023-05-24T01:12:57.133Z,8.80
2023-05-24T01:15:31.655Z,8.70
2023-05-24T01:18:07.919Z,8.70
2023-05-24T01:20:38.811Z,8.60
2023-05-24T01:23:16.057Z,8.60
2023-05-24T01:25:53.002Z,8.60
2023-05-24T01:28:25.112Z,8.60
2023-05-24T01:30:53.400Z,8.50
2023-05-24T01:33:22.136Z,8.50
2023-05-24T01:35:50.201Z,8.50
2023-05-24T01:38:18.195Z,8.50
2023-05-24T01:40:49.352Z,8.50
2023-05-24T01:43:24.236Z,8.50
2023-05-24T01:46:07.854Z,8.40
2023-05-24T01:48:44.393Z,8.40
2023-05-24T01:51:15.834Z,8.30
2023-05-24T01:53:47.667Z,8.40
2023-05-24T01:56:19.392Z,8.40
2023-05-24T01:58:48.567Z,8.30
2023-05-24T02:01:18.192Z,8.30
2023-05-24T02:03:46.964Z,8.30
2023-05-24T02:06:15.002Z,8.30
2023-05-24T02:08:42.947Z,8.30
2023-05-24T02:11:11.038Z,8.30
2023-05-24T02:13:39.017Z,8.20
2023-05-24T02:16:07.345Z,8.20
2023-05-24T02:18:36.715Z,8.20
2023-05-24T02:21:04.869Z,8.20
2023-05-24T02:23:32.849Z,8.20
2023-05-24T02:26:01.392Z,8.20
2023-05-24T02:28:32.169Z,8.20
2023-05-24T02:31:00.264Z,8.20
2023-05-24T02:33:29.866Z,8.10
2023-05-24T02:35:59.183Z,8.10
2023-05-24T02:38:27.528Z,8.10
2023-05-24T02:40:55.581Z,8.00
2023-05-24T02:43:23.549Z,8.10
2023-05-24T02:45:51.516Z,8.10
2023-05-24T02:48:19.451Z,8.10
2023-05-24T02:50:47.527Z,8.10
2023-05-24T02:53:16.933Z,8.10
2023-05-24T02:55:46.659Z,8.30
2023-05-24T02:58:14.652Z,8.10
2023-05-24T03:00:42.739Z,8.00
2023-05-24T03:03:10.938Z,8.00
2023-05-24T03:05:38.962Z,8.00
2023-05-24T03:08:07.890Z,8.10
2023-05-24T03:10:37.139Z,8.10
2023-05-24T03:13:05.178Z,8.10
2023-05-24T03:15:33.130Z,8.10
2023-05-24T03:18:01.110Z,8.10
2023-05-24T03:20:29.142Z,8.10
2023-05-24T03:22:57.148Z,8.20
2023-05-24T03:25:25.083Z,8.20
2023-05-24T03:27:54.400Z,8.60
2023-05-24T03:30:22.512Z,8.20
2023-05-24T03:32:50.449Z,8.20
2023-05-24T03:35:18.408Z,8.20
2023-05-24T03:37:46.394Z,8.30
2023-05-24T03:40:14.452Z,8.30
2023-05-24T03:42:42.350Z,8.40
2023-05-24T03:45:12.508Z,8.40
2023-05-24T03:47:40.812Z,8.40
2023-05-24T03:50:09.470Z,8.40
2023-05-24T03:52:37.447Z,8.40
2023-05-24T03:55:05.994Z,8.40
2023-05-24T03:57:33.918Z,8.40
2023-05-24T04:00:01.938Z,8.40
2023-05-24T04:02:31.347Z,8.40
2023-05-24T04:04:59.317Z,8.40
2023-05-24T04:07:27.256Z,8.50
2023-05-24T04:09:55.234Z,8.50
2023-05-24T04:12:24.322Z,8.60
2023-05-24T04:14:52.381Z,8.60
2023-05-24T04:17:20.450Z,8.70
2023-05-24T04:19:49.825Z,8.70
2023-05-24T04:22:18.517Z,8.80
2023-05-24T04:24:46.563Z,8.80
2023-05-24T04:27:14.938Z,8.90
2023-05-24T04:29:43.176Z,9.10
2023-05-24T04:32:11.152Z,9.30
2023-05-24T04:34:42.613Z,9.00
2023-05-24T04:37:11.915Z,9.10
2023-05-24T04:39:39.887Z,9.10
2023-05-24T04:42:09.143Z,9.20
2023-05-24T04:44:37.135Z,9.30
2023-05-24T04:47:05.380Z,9.40
2023-05-24T04:49:33.418Z,9.40
2023-05-24T04:52:01.386Z,9.50
2023-05-24T04:54:30.685Z,9.50
2023-05-24T04:56:58.604Z,9.70
2023-05-24T04:59:26.489Z,10.00
2023-05-24T05:01:54.498Z,9.90
2023-05-24T05:04:22.502Z,9.90
2023-05-24T05:06:50.469Z,9.90
2023-05-24T05:09:19.021Z,10.00
2023-05-24T05:11:49.248Z,10.10
2023-05-24T05:14:17.451Z,10.20
2023-05-24T05:16:46.450Z,10.30
2023-05-24T05:19:14.525Z,10.30
2023-05-24T05:21:42.567Z,10.40
2023-05-24T05:24:10.533Z,10.50
2023-05-24T05:26:38.482Z,10.50
2023-05-24T05:29:07.747Z,10.60
2023-05-24T05:31:36.605Z,10.60
2023-05-24T05:34:04.941Z,10.70
2023-05-24T05:36:33.011Z,10.80
2023-05-24T05:39:01.004Z,10.80
2023-05-24T05:41:28.909Z,10.90
2023-05-24T05:43:56.834Z,10.90
2023-05-24T05:46:26.185Z,11.00
2023-05-24T05:48:54.116Z,11.00
2023-05-24T05:51:22.032Z,11.00
2023-05-24T05:53:49.956Z,11.10
2023-05-24T05:56:17.967Z,11.20
2023-05-24T05:58:45.891Z,11.20
2023-05-24T06:01:13.806Z,11.30
2023-05-24T06:03:43.311Z,11.40
2023-05-24T06:06:11.395Z,11.40
2023-05-24T06:08:40.805Z,11.50
2023-05-24T06:11:08.836Z,11.50
2023-05-24T06:13:36.763Z,11.60
2023-05-24T06:16:04.816Z,11.60
2023-05-24T06:18:32.765Z,11.70
2023-05-24T06:21:02.060Z,11.80
2023-05-24T06:23:30.004Z,11.80
2023-05-24T06:25:58.023Z,11.90
2023-05-24T06:28:26.159Z,11.90
2023-05-24T06:30:54.307Z,12.10
2023-05-24T06:33:22.456Z,12.10
2023-05-24T06:35:50.597Z,12.20
2023-05-24T06:38:19.924Z,12.20
2023-05-24T06:40:47.974Z,12.30
2023-05-24T06:43:16.240Z,12.40
2023-05-24T06:45:44.478Z,12.50
2023-05-24T06:48:12.529Z,12.50
2023-05-24T06:50:42.752Z,12.60
2023-05-24T06:53:11.412Z,12.60
2023-05-24T06:55:40.696Z,12.70
2023-05-24T06:58:14.191Z,12.70
2023-05-24T07:00:42.920Z,12.80
2023-05-24T07:03:11.331Z,12.90
2023-05-24T07:05:39.658Z,13.00
2023-05-24T07:08:08.001Z,13.00
2023-05-24T07:10:35.964Z,13.10
2023-05-24T07:13:05.557Z,13.30
2023-05-24T07:15:33.549Z,13.40
2023-05-24T07:18:01.624Z,13.40
2023-05-24T07:20:29.718Z,13.40
2023-05-24T07:22:57.863Z,13.60
2023-05-24T07:25:25.824Z,13.60
2023-05-24T07:27:53.818Z,13.60
2023-05-24T07:30:31.728Z,13.70
2023-05-24T07:33:02.046Z,13.70
2023-05-24T07:35:31.157Z,13.90
2023-05-24T07:37:59.146Z,13.90
2023-05-24T07:40:27.073Z,13.90
2023-05-24T07:42:55.020Z,14.10
2023-05-24T07:45:24.380Z,14.00
2023-05-24T07:47:53.852Z,14.10
2023-05-24T07:50:24.038Z,14.10
2023-05-24T07:52:52.309Z,14.10
2023-05-24T07:55:20.470Z,14.20
2023-05-24T07:57:48.620Z,14.20
2023-05-24T08:00:17.701Z,14.10
2023-05-24T08:02:47.319Z,14.20
2023-05-24T08:05:16.547Z,14.30
2023-05-24T08:07:44.541Z,14.40
2023-05-24T08:10:13.543Z,14.50
2023-05-24T08:12:41.663Z,14.50
2023-05-24T08:15:10.795Z,14.60
2023-05-24T08:17:39.394Z,14.70
2023-05-24T08:20:10.269Z,14.80
2023-05-24T08:22:38.344Z,14.80
2023-05-24T08:25:07.288Z,14.90
2023-05-24T08:27:35.266Z,14.80
2023-05-24T08:30:04.291Z,14.70
2023-05-24T08:32:33.188Z,14.80
2023-05-24T08:35:18.694Z,14.80
2023-05-24T08:37:49.672Z,14.80
2023-05-24T08:40:18.064Z,14.60
2023-05-24T08:42:46.709Z,14.80
2023-05-24T08:45:16.357Z,14.80
2023-05-24T08:47:44.667Z,14.90
2023-05-24T08:50:13.998Z,14.90
2023-05-24T08:52:43.473Z,15.00
2023-05-24T08:55:13.396Z,15.10
2023-05-24T08:57:41.917Z,15.10
2023-05-24T09:00:12.925Z,15.00
2023-05-24T09:02:42.760Z,15.00
2023-05-24T09:05:12.463Z,15.10
2023-05-24T09:07:42.967Z,15.20
2023-05-24T09:10:12.920Z,15.20
2023-05-24T09:12:49.519Z,15.30
2023-05-24T09:15:17.473Z,15.40
2023-05-24T09:17:45.488Z,15.50
2023-05-24T09:20:14.292Z,15.50
2023-05-24T09:22:44.090Z,15.60
2023-05-24T09:25:15.541Z,15.60
2023-05-24T09:27:47.511Z,15.60
2023-05-24T09:30:16.947Z,15.70
2023-05-24T09:32:57.381Z,15.80
2023-05-24T09:35:26.829Z,15.90
2023-05-24T09:37:57.617Z,16.00
2023-05-24T09:40:27.888Z,15.90
2023-05-24T09:43:07.323Z,16.10
2023-05-24T09:45:40.193Z,16.20
2023-05-24T09:48:12.812Z,16.20
2023-05-24T09:50:41.499Z,16.40
2023-05-24T09:53:09.825Z,16.40
2023-05-24T09:55:39.152Z,16.40
2023-05-24T09:58:08.860Z,16.50
2023-05-24T10:00:40.870Z,16.60
2023-05-24T10:03:11.140Z,16.60
2023-05-24T10:05:40.055Z,16.80
2023-05-24T10:08:09.576Z,16.90
2023-05-24T10:10:38.994Z,16.90
2023-05-24T10:13:07.645Z,17.00
2023-05-24T10:15:36.157Z,17.00
2023-05-24T10:18:09.833Z,17.10
2023-05-24T10:20:41.466Z,17.30
2023-05-24T10:23:11.393Z,17.40
2023-05-24T10:25:50.119Z,17.50
2023-05-24T10:28:19.519Z,17.60
2023-05-24T10:30:55.733Z,17.80
2023-05-24T10:33:25.348Z,17.80
2023-05-24T10:35:54.589Z,18.10
2023-05-24T10:38:24.365Z,18.20
2023-05-24T10:40:53.983Z,18.30
2023-05-24T10:43:23.062Z,18.20
2023-05-24T10:45:51.944Z,18.40
2023-05-24T10:48:42.250Z,18.60
2023-05-24T10:51:31.488Z,18.60
2023-05-24T10:54:10.511Z,18.80
2023-05-24T10:56:43.681Z,18.90
2023-05-24T10:59:24.434Z,19.00
2023-05-24T11:02:00.810Z,19.10
2023-05-24T11:04:38.492Z,19.10
2023-05-24T11:07:09.573Z,19.30
2023-05-24T11:09:40.136Z,19.10
2023-05-24T11:12:10.522Z,19.40
2023-05-24T11:14:40.989Z,19.60
2023-05-24T11:17:09.615Z,19.40
2023-05-24T11:19:39.238Z,19.60
2023-05-24T11:22:09.094Z,19.70
2023-05-24T11:24:38.203Z,20.00
2023-05-24T11:27:07.102Z,20.00
2023-05-24T11:29:42.570Z,19.80
2023-05-24T11:32:10.887Z,20.00
2023-05-24T11:34:40.027Z,20.20
2023-05-24T11:37:08.200Z,20.40
2023-05-24T11:39:37.586Z,20.30
2023-05-24T11:42:06.529Z,20.40
2023-05-24T11:44:38.516Z,20.80
2023-05-24T11:47:08.610Z,20.90
2023-05-24T11:49:36.844Z,20.90
2023-05-24T11:52:04.834Z,20.40
2023-05-24T11:54:34.816Z,20.50
2023-05-24T11:57:03.642Z,20.90
2023-05-24T11:59:31.743Z,20.50
2023-05-24T12:02:02.720Z,20.90
2023-05-24T12:04:31.386Z,21.30
2023-05-24T12:07:00.009Z,21.30
2023-05-24T12:09:28.558Z,21.30
2023-05-24T12:11:57.745Z,21.70
2023-05-24T12:14:28.511Z,21.90
2023-05-24T12:16:57.584Z,22.00
2023-05-24T12:19:33.486Z,22.10
2023-05-24T12:22:05.794Z,21.80
2023-05-24T12:24:33.910Z,21.90
2023-05-24T12:27:03.401Z,21.90
2023-05-24T12:29:35.364Z,22.30
2023-05-24T12:32:03.837Z,22.50
2023-05-24T12:34:33.854Z,22.50
2023-05-24T12:37:01.888Z,22.20
2023-05-24T12:39:34.127Z,22.30
2023-05-24T12:42:03.726Z,22.50
2023-05-24T12:44:33.590Z,22.90
2023-05-24T12:47:04.108Z,22.90
2023-05-24T12:49:33.806Z,23.00
2023-05-24T12:52:02.690Z,22.60
2023-05-24T12:54:30.930Z,22.80
2023-05-24T12:57:02.497Z,23.00
2023-05-24T12:59:30.644Z,23.10
2023-05-24T13:01:58.669Z,23.30
2023-05-24T13:04:27.572Z,23.20
2023-05-24T13:06:57.146Z,23.20
2023-05-24T13:09:25.927Z,23.50
2023-05-24T13:11:54.550Z,23.70
2023-05-24T13:14:22.642Z,23.80
2023-05-24T13:16:50.841Z,23.50
2023-05-24T13:19:18.992Z,23.90
2023-05-24T13:21:47.054Z,23.70
2023-05-24T13:24:17.551Z,23.40
2023-05-24T13:26:46.206Z,23.90
2023-05-24T13:31:45.474Z,24.40
2023-05-24T13:34:13.670Z,24.30
2023-05-24T13:36:41.998Z,24.60
2023-05-24T13:39:15.444Z,24.90
2023-05-24T13:41:45.450Z,25.30
2023-05-24T13:44:14.006Z,25.80
2023-05-24T13:46:42.761Z,25.90
2023-05-24T13:49:11.880Z,25.90
2023-05-24T13:51:41.178Z,25.90
2023-05-24T13:54:09.229Z,26.00
2023-05-24T13:56:38.539Z,26.00
2023-05-24T13:59:08.469Z,25.90
2023-05-24T14:01:37.786Z,25.60
2023-05-24T14:04:06.511Z,26.20
2023-05-24T14:06:37.448Z,26.80
2023-05-24T14:09:07.028Z,27.00
2023-05-24T14:11:35.082Z,26.70
2023-05-24T14:16:37.005Z,26.80
2023-05-24T14:19:05.501Z,26.50
2023-05-24T14:21:33.508Z,26.70
2023-05-24T14:24:01.747Z,26.20
2023-05-24T14:26:29.756Z,26.30
2023-05-24T14:28:57.666Z,26.80
2023-05-24T14:31:25.880Z,27.00
2023-05-24T14:33:55.260Z,27.10
2023-05-24T14:36:23.190Z,26.20
2023-05-24T14:38:51.675Z,26.00
2023-05-24T14:41:19.679Z,26.50
2023-05-24T14:43:47.611Z,26.60
2023-05-24T14:46:15.665Z,26.40
2023-05-24T14:48:43.703Z,26.50
2023-05-24T14:51:13.044Z,26.50
2023-05-24T14:53:41.130Z,26.50
2023-05-24T14:56:10.118Z,26.30
2023-05-24T14:58:38.181Z,25.60
2023-05-24T15:01:06.690Z,25.60
2023-05-24T15:03:34.851Z,25.20
2023-05-24T15:06:03.590Z,24.90
2023-05-24T15:08:33.889Z,25.20
2023-05-24T15:11:01.851Z,25.60
2023-05-24T15:13:29.763Z,25.50
2023-05-24T15:16:00.347Z,25.20
2023-05-24T15:18:29.009Z,25.40
2023-05-24T15:20:57.264Z,25.10
2023-05-24T15:23:25.977Z,25.10
2023-05-24T15:25:55.291Z,24.90
2023-05-24T15:28:26.029Z,24.90
2023-05-24T15:30:54.558Z,24.90
2023-05-24T15:33:22.669Z,24.70
2023-05-24T15:35:50.822Z,24.50
2023-05-24T15:38:18.806Z,24.50
2023-05-24T15:40:47.065Z,24.30
2023-05-24T15:43:16.529Z,24.40
2023-05-24T15:45:45.479Z,24.20
2023-05-24T15:48:14.069Z,24.00
2023-05-24T15:53:13.081Z,23.90
2023-05-24T15:55:41.125Z,23.80
2023-05-24T15:58:09.117Z,23.60
2023-05-24T16:00:38.454Z,23.40
2023-05-24T16:03:06.575Z,23.50
2023-05-24T16:05:34.630Z,23.60
2023-05-24T16:08:02.649Z,23.40
2023-05-24T16:10:30.769Z,23.40
2023-05-24T16:12:58.798Z,23.10
2023-05-24T16:15:30.031Z,23.30
2023-05-24T16:17:59.572Z,23.20
2023-05-24T16:20:27.563Z,22.90
2023-05-24T16:22:55.970Z,23.00
2023-05-24T16:25:23.983Z,23.00
2023-05-24T16:27:51.951Z,22.50
2023-05-24T16:30:19.985Z,22.70
2023-05-24T16:32:47.924Z,22.80
2023-05-24T16:35:17.484Z,22.60
2023-05-24T16:37:45.449Z,22.50
2023-05-24T16:40:13.885Z,22.60
2023-05-24T16:42:41.882Z,22.50
2023-05-24T16:45:10.317Z,22.80
2023-05-24T16:47:38.286Z,22.80
2023-05-24T16:50:07.549Z,22.60
2023-05-24T16:52:36.832Z,22.60
2023-05-24T16:55:05.316Z,22.80
2023-05-24T16:57:33.306Z,22.80
2023-05-24T17:00:01.211Z,22.50
2023-05-24T17:02:29.228Z,22.30
2023-05-24T17:04:57.398Z,22.40
2023-05-24T17:07:25.431Z,22.50
2023-05-24T17:09:54.864Z,22.60
2023-05-24T17:12:22.868Z,22.50
2023-05-24T17:14:50.777Z,22.50
2023-05-24T17:17:18.775Z,22.50
2023-05-24T17:19:46.762Z,22.30
2023-05-24T17:22:14.820Z,22.20
2023-05-24T17:24:43.165Z,22.00
2023-05-24T17:27:12.530Z,22.10
2023-05-24T17:29:40.466Z,21.90
2023-05-24T17:32:08.506Z,21.90
2023-05-24T17:34:36.630Z,21.70
2023-05-24T17:37:04.775Z,21.70
2023-05-24T17:39:32.741Z,21.60
2023-05-24T17:42:01.041Z,21.30
2023-05-24T17:44:31.273Z,21.20
2023-05-24T17:47:01.651Z,21.00
2023-05-24T17:49:30.301Z,20.80
2023-05-24T17:52:00.839Z,20.70
2023-05-24T17:54:29.165Z,20.60
2023-05-24T17:56:57.163Z,20.60
2023-05-24T17:59:25.105Z,20.50
2023-05-24T18:01:55.969Z,20.00
2023-05-24T18:04:23.904Z,19.90
2023-05-24T18:06:51.854Z,19.90
2023-05-24T18:09:21.526Z,20.10
2023-05-24T18:11:49.614Z,20.20
2023-05-24T18:14:18.283Z,20.40
2023-05-24T18:16:46.629Z,20.40
2023-05-24T18:19:15.978Z,20.40
2023-05-24T18:21:44.042Z,20.40
2023-05-24T18:24:12.019Z,20.50
2023-05-24T18:26:39.968Z,20.60
2023-05-24T18:29:07.906Z,20.60
2023-05-24T18:31:36.456Z,20.50
2023-05-24T18:34:04.448Z,20.50
2023-05-24T18:36:34.196Z,20.50
2023-05-24T18:39:02.317Z,20.50
2023-05-24T18:41:30.221Z,20.60
2023-05-24T18:43:58.136Z,20.40
2023-05-24T18:46:26.219Z,20.40
2023-05-24T18:48:54.267Z,20.30
2023-05-24T18:51:22.374Z,20.20
2023-05-24T18:53:51.747Z,19.80
2023-05-24T18:56:19.687Z,19.60
2023-05-24T18:58:49.690Z,19.50
2023-05-24T19:01:18.471Z,19.50
2023-05-24T19:03:46.530Z,19.40
2023-05-24T19:06:14.615Z,19.20
2023-05-24T19:08:42.619Z,19.10
2023-05-24T19:11:12.062Z,19.00
2023-05-24T19:13:40.821Z,18.90
2023-05-24T19:16:08.838Z,18.80
2023-05-24T19:18:36.939Z,18.60
2023-05-24T19:21:05.024Z,18.60
2023-05-24T19:23:32.973Z,18.50
2023-05-24T19:26:00.942Z,18.20
2023-05-24T19:28:30.317Z,18.10
2023-05-24T19:31:01.111Z,18.00
2023-05-24T19:33:29.098Z,17.90
2023-05-24T19:35:57.076Z,17.70
2023-05-24T19:38:25.077Z,17.50
2023-05-24T19:40:52.993Z,17.40
2023-05-24T19:43:20.986Z,17.30
2023-05-24T19:45:51.813Z,17.00
2023-05-24T19:48:19.945Z,16.90
2023-05-24T19:50:48.976Z,16.70
2023-05-24T19:53:17.174Z,16.60
2023-05-24T19:55:45.395Z,16.50
2023-05-24T19:58:13.545Z,16.40
2023-05-24T20:00:41.480Z,16.30
2023-05-24T20:03:11.900Z,16.20
2023-05-24T20:05:40.767Z,16.10
2023-05-24T20:08:08.735Z,16.10
2023-05-24T20:10:38.790Z,15.90
2023-05-24T20:13:07.065Z,15.80
2023-05-24T20:15:35.040Z,15.70
2023-05-24T20:18:03.594Z,15.50
2023-05-24T20:20:33.025Z,15.50
2023-05-24T20:23:01.047Z,15.50
2023-05-24T20:25:29.333Z,15.40
2023-05-24T20:27:58.898Z,15.30
2023-05-24T20:30:27.013Z,15.20
2023-05-24T20:32:54.989Z,15.10
2023-05-24T20:35:23.020Z,15.00
2023-05-24T20:37:52.403Z,15.10
2023-05-24T20:40:24.960Z,15.00
2023-05-24T20:42:53.176Z,14.80
2023-05-24T20:45:21.380Z,14.80
2023-05-24T20:47:49.733Z,14.60
2023-05-24T20:50:17.769Z,14.60
2023-05-24T20:52:45.836Z,14.60
2023-05-24T20:55:16.294Z,14.60
2023-05-24T20:57:44.805Z,14.40
2023-05-24T21:00:13.655Z,14.30
2023-05-24T21:02:41.793Z,14.30
2023-05-24T21:05:10.521Z,14.20
2023-05-24T21:07:38.561Z,14.20
2023-05-24T21:10:07.670Z,14.10
2023-05-24T21:12:37.016Z,14.10
2023-05-24T21:15:05.791Z,14.00
2023-05-24T21:17:33.827Z,14.00
2023-05-24T21:20:02.196Z,14.00
2023-05-24T21:22:30.293Z,13.90
2023-05-24T21:24:58.309Z,13.90
2023-05-24T21:27:27.334Z,13.80
2023-05-24T21:29:56.779Z,13.80
2023-05-24T21:32:24.883Z,13.60
2023-05-24T21:34:52.981Z,13.60
2023-05-24T21:37:21.251Z,13.60
2023-05-24T21:39:51.707Z,13.50
2023-05-24T21:42:20.214Z,13.40
2023-05-24T21:44:48.212Z,13.40
2023-05-24T21:47:17.706Z,13.30
2023-05-24T21:49:45.866Z,13.30
2023-05-24T21:52:13.870Z,13.30
2023-05-24T21:54:41.875Z,13.30
2023-05-24T21:57:10.041Z,13.20
2023-05-24T21:59:38.003Z,13.20
2023-05-24T22:02:06.655Z,12.90
2023-05-24T22:04:36.032Z,13.00
2023-05-24T22:07:04.144Z,13.10
2023-05-24T22:09:32.170Z,13.00
2023-05-24T22:12:00.214Z,13.00
2023-05-24T22:14:28.238Z,12.90
2023-05-24T22:16:56.466Z,12.90
2023-05-24T22:19:38.875Z,12.90
2023-05-24T22:22:10.061Z,12.80
2023-05-24T22:24:38.025Z,12.70
2023-05-24T22:27:09.642Z,12.70
2023-05-24T22:29:37.766Z,12.70
2023-05-24T22:32:06.294Z,12.80
2023-05-24T22:34:34.340Z,12.70
2023-05-24T22:37:02.316Z,12.60
2023-05-24T22:39:31.784Z,12.50
2023-05-24T22:41:59.858Z,12.50
2023-05-24T22:44:27.866Z,12.50
2023-05-24T22:46:56.423Z,12.50
2023-05-24T22:49:24.473Z,12.60
2023-05-24T22:51:55.056Z,12.50
2023-05-24T22:54:23.096Z,12.50
2023-05-24T22:56:52.432Z,12.60
2023-05-24T22:59:20.659Z,12.40
2023-05-24T23:01:48.751Z,12.40
2023-05-24T23:04:21.012Z,12.20
2023-05-24T23:06:52.345Z,12.40
2023-05-24T23:09:28.902Z,12.40
2023-05-24T23:11:58.955Z,12.40
2023-05-24T23:14:30.357Z,12.30
2023-05-24T23:17:02.397Z,12.30
2023-05-24T23:19:31.116Z,12.40
2023-05-24T23:21:59.494Z,12.30
2023-05-24T23:24:27.694Z,12.20
2023-05-24T23:26:57.007Z,12.10
2023-05-24T23:29:26.694Z,12.20
2023-05-24T23:31:54.841Z,12.10
2023-05-24T23:34:22.766Z,12.10
2023-05-24T23:36:50.833Z,12.10
2023-05-24T23:39:18.954Z,12.10
2023-05-24T23:41:46.919Z,12.10
2023-05-24T23:44:14.903Z,12.10
2023-05-24T23:46:44.314Z,12.00
2023-05-24T23:49:12.827Z,11.80
2023-05-24T23:51:40.742Z,12.00
2023-05-24T23:54:08.674Z,12.00
2023-05-24T23:56:38.998Z,11.90
2023-05-24T23:59:06.937Z,12.10
